Time;durP1;ratioP1;P1;durP2;ratioP2;P2;SDS_P1;SDS_P2;PMS_P1;PMS_P2;Temp;Humidity;BMP_temperature;BMP_pressure;BME280_temperature;BME280_humidity;BME280_pressure;Samples;Min_cycle;Max_cycle;Signal;HPM_P1;HPM_P2
2021/01/29 00:01:30;;;;;;;4.72;1.88;;;16.90;99.90;;;;;;5071558;28;20025;-62
2021/01/29 00:03:56;;;;;;;4.22;1.33;;;16.90;99.90;;;;;;5071239;28;20350;-62
2021/01/29 00:06:21;;;;;;;5.85;1.60;;;16.90;99.90;;;;;;5071589;28;20039;-62
2021/01/29 00:08:47;;;;;;;6.15;1.88;;;16.90;99.90;;;;;;5071444;28;20361;-62
2021/01/29 00:11:13;;;;;;;3.10;1.40;;;16.90;99.90;;;;;;5071603;28;20488;-62
2021/01/29 00:13:38;;;;;;;3.78;1.63;;;16.90;99.90;;;;;;5070742;28;20107;-62
2021/01/29 00:16:04;;;;;;;3.92;1.50;;;16.90;99.90;;;;;;5071080;28;20032;-62
2021/01/29 00:18:30;;;;;;;5.07;1.33;;;16.80;99.90;;;;;;5070967;28;20024;-64
2021/01/29 00:20:55;;;;;;;4.55;1.13;;;16.80;99.90;;;;;;5070975;28;20040;-63
2021/01/29 00:23:21;;;;;;;5.50;1.60;;;16.80;99.90;;;;;;5071289;28;20032;-62
2021/01/29 00:25:50;;;;;;;6.32;1.52;;;16.80;99.90;;;;;;5071153;28;20032;-62
2021/01/29 00:28:16;;;;;;;6.43;1.45;;;16.80;99.90;;;;;;5071263;28;20472;-63
2021/01/29 00:30:41;;;;;;;4.53;1.60;;;16.80;99.90;;;;;;5070553;28;20040;-62
2021/01/29 00:33:10;;;;;;;2.85;1.35;;;16.80;99.90;;;;;;5071051;28;20017;-61
2021/01/29 00:35:36;;;;;;;3.75;1.40;;;16.80;99.90;;;;;;5070806;28;20036;-63
2021/01/29 00:38:03;;;;;;;4.75;1.15;;;16.80;99.90;;;;;;5071154;28;20100;-63
2021/01/29 00:40:29;;;;;;;4.10;1.42;;;16.80;99.90;;;;;;5071476;28;20123;-62
2021/01/29 00:42:55;;;;;;;4.13;1.33;;;16.80;99.90;;;;;;5070677;28;20078;-65
2021/01/29 00:45:24;;;;;;;2.50;1.20;;;16.80;99.90;;;;;;5070778;28;20032;-64
2021/01/29 00:47:50;;;;;;;4.22;1.30;;;16.80;99.90;;;;;;5070681;28;20519;-63
2021/01/29 00:50:15;;;;;;;2.58;1.00;;;16.80;99.90;;;;;;5071235;28;20052;-64
2021/01/29 00:52:41;;;;;;;3.20;1.10;;;16.80;99.90;;;;;;5070351;28;20032;-62
2021/01/29 00:55:08;;;;;;;3.55;1.20;;;16.80;99.90;;;;;;5070939;28;20043;-62
2021/01/29 00:57:33;;;;;;;3.78;1.13;;;16.70;99.90;;;;;;5070673;28;20377;-64
2021/01/29 00:59:59;;;;;;;4.10;1.33;;;16.70;99.90;;;;;;5071106;28;20043;-64
2021/01/29 01:02:25;;;;;;;3.10;0.98;;;16.70;99.90;;;;;;5070884;28;20024;-65
2021/01/29 01:04:50;;;;;;;3.15;1.30;;;16.70;99.90;;;;;;5070621;28;20025;-64
2021/01/29 01:07:17;;;;;;;2.45;1.23;;;16.70;99.90;;;;;;5070885;28;20020;-63
2021/01/29 01:09:44;;;;;;;3.13;1.00;;;16.70;99.90;;;;;;5070251;28;20043;-64
2021/01/29 01:12:09;;;;;;;3.05;1.08;;;16.60;99.90;;;;;;5071977;28;20036;-63
2021/01/29 01:14:35;;;;;;;2.75;0.95;;;16.60;99.90;;;;;;5074467;28;20012;-63
2021/01/29 01:17:01;;;;;;;2.67;0.93;;;16.60;99.90;;;;;;5074390;28;20024;-62
2021/01/29 01:19:27;;;;;;;2.75;0.90;;;16.60;99.90;;;;;;5074840;28;20037;-62
2021/01/29 01:21:52;;;;;;;3.22;0.90;;;16.70;99.90;;;;;;5074503;28;20376;-64
2021/01/29 01:24:18;;;;;;;3.50;1.00;;;16.70;99.90;;;;;;5074485;28;20020;-65
2021/01/29 01:26:43;;;;;;;2.28;1.00;;;16.60;99.90;;;;;;5073943;28;20020;-63
2021/01/29 01:29:09;;;;;;;4.40;0.90;;;16.60;99.90;;;;;;5074321;28;20472;-62
2021/01/29 01:31:34;;;;;;;3.10;1.00;;;16.60;99.90;;;;;;5074156;28;20067;-64
2021/01/29 01:34:00;;;;;;;1.80;0.75;;;16.60;99.90;;;;;;5074674;28;20416;-63
2021/01/29 01:36:26;;;;;;;2.25;0.90;;;16.60;99.90;;;;;;5074492;28;20029;-63
2021/01/29 01:38:51;;;;;;;2.00;0.90;;;16.60;99.90;;;;;;5074031;28;20021;-64
2021/01/29 01:41:17;;;;;;;3.20;0.80;;;16.60;99.90;;;;;;5074096;28;20086;-64
2021/01/29 01:43:43;;;;;;;2.83;1.08;;;16.60;99.90;;;;;;5073504;28;20056;-64
2021/01/29 01:46:16;;;;;;;1.88;0.90;;;16.60;99.90;;;;;;5074208;28;20035;-64
2021/01/29 01:48:48;;;;;;;3.65;1.05;;;16.60;99.90;;;;;;5073975;28;20028;-63
2021/01/29 01:51:23;;;;;;;2.28;0.80;;;16.60;99.90;;;;;;5073792;28;20055;-63
2021/01/29 01:53:53;;;;;;;2.03;0.88;;;16.60;99.90;;;;;;5073805;28;20033;-65
2021/01/29 01:56:37;;;;;;;3.05;0.70;;;16.60;99.90;;;;;;5074026;28;20483;-63
2021/01/29 01:59:07;;;;;;;2.00;0.75;;;16.60;99.90;;;;;;5073784;28;20082;-64
2021/01/29 02:01:35;;;;;;;1.77;0.80;;;16.60;99.90;;;;;;5073719;28;20029;-64
2021/01/29 02:04:01;;;;;;;4.05;0.70;;;16.60;99.90;;;;;;5074192;28;20043;-64
2021/01/29 02:06:29;;;;;;;2.72;0.90;;;16.60;99.90;;;;;;5074122;28;20491;-64
2021/01/29 02:09:01;;;;;;;1.70;0.60;;;16.60;99.90;;;;;;5073631;28;20071;-65
2021/01/29 02:11:27;;;;;;;1.80;0.70;;;16.60;99.90;;;;;;5073716;28;20029;-65
2021/01/29 02:13:52;;;;;;;3.10;0.80;;;16.50;99.90;;;;;;5073431;28;20028;-65
2021/01/29 02:16:29;;;;;;;2.10;0.70;;;16.60;99.90;;;;;;5073687;28;20021;-64
2021/01/29 02:19:09;;;;;;;2.30;1.00;;;16.50;99.90;;;;;;5073427;28;20028;-64
2021/01/29 02:22:07;;;;;;;2.58;0.88;;;16.50;99.90;;;;;;5072962;28;20447;-64
2021/01/29 02:25:02;;;;;;;1.75;0.57;;;16.50;99.90;;;;;;5073078;28;20443;-64
2021/01/29 02:27:45;;;;;;;1.65;0.43;;;16.40;99.90;;;;;;5036766;28;20041;-65
2021/01/29 02:30:47;;;;;;;1.20;0.50;;;16.50;99.90;;;;;;5073319;28;20078;-64
2021/01/29 02:33:45;;;;;;;2.58;0.60;;;16.40;99.90;;;;;;5072962;28;20032;-64
2021/01/29 02:36:33;;;;;;;1.85;0.70;;;16.50;99.90;;;;;;5073785;28;20019;-63
2021/01/29 02:39:06;;;;;;;2.80;0.70;;;16.50;99.90;;;;;;5073585;28;20030;-64
2021/01/29 02:41:53;;;;;;;1.40;0.50;;;16.40;99.90;;;;;;5072801;28;20042;-65
2021/01/29 02:44:31;;;;;;;1.52;0.70;;;16.40;99.90;;;;;;5072798;28;20031;-64
2021/01/29 02:47:00;;;;;;;4.20;0.50;;;16.40;99.90;;;;;;5072949;28;20074;-65
2021/01/29 02:49:50;;;;;;;1.83;0.60;;;16.40;99.90;;;;;;5072958;28;20027;-63
2021/01/29 02:52:31;;;;;;;2.22;0.95;;;16.40;99.90;;;;;;5072805;28;20103;-64
2021/01/29 02:55:22;;;;;;;2.17;0.73;;;16.40;99.90;;;;;;5073119;28;20461;-63
2021/01/29 02:58:07;;;;;;;2.05;0.70;;;16.40;99.90;;;;;;5072627;28;20040;-64
2021/01/29 03:00:44;;;;;;;2.63;0.80;;;16.40;99.90;;;;;;5072578;28;20171;-64
2021/01/29 03:03:25;;;;;;;3.05;0.60;;;16.30;99.90;;;;;;5072807;28;20059;-64
2021/01/29 03:06:13;;;;;;;2.35;0.63;;;16.30;99.90;;;;;;5072667;28;20025;-65
2021/01/29 03:08:56;;;;;;;3.33;0.68;;;16.30;99.90;;;;;;5072094;28;20500;-64
2021/01/29 03:11:35;;;;;;;2.70;0.88;;;16.30;99.90;;;;;;5072042;28;20197;-64
2021/01/29 03:14:17;;;;;;;2.53;0.80;;;16.30;99.90;;;;;;5072825;28;20024;-64
2021/01/29 03:17:06;;;;;;;2.85;0.75;;;16.30;99.90;;;;;;5071811;28;20035;-64
2021/01/29 03:19:38;;;;;;;2.72;0.73;;;16.30;99.90;;;;;;5072069;28;20025;-64
2021/01/29 03:22:13;;;;;;;2.53;0.90;;;16.30;99.90;;;;;;5072356;28;20037;-64
2021/01/29 03:24:46;;;;;;;2.90;0.80;;;16.20;99.90;;;;;;5072077;28;20020;-64
2021/01/29 03:27:18;;;;;;;2.42;0.68;;;16.20;99.90;;;;;;5072268;28;20116;-63
2021/01/29 03:29:51;;;;;;;1.90;0.73;;;16.20;99.90;;;;;;5071888;28;20031;-64
2021/01/29 03:32:19;;;;;;;2.55;0.85;;;16.20;99.90;;;;;;5072175;28;20024;-63
2021/01/29 03:34:53;;;;;;;3.17;0.90;;;16.20;99.90;;;;;;5071193;28;20041;-63
2021/01/29 03:37:28;;;;;;;2.55;0.85;;;16.20;99.90;;;;;;5072135;28;20020;-63
2021/01/29 03:39:55;;;;;;;3.20;1.00;;;16.20;99.90;;;;;;5071710;28;20036;-62
2021/01/29 03:42:32;;;;;;;5.28;0.80;;;16.20;99.90;;;;;;5071421;28;20029;-64
2021/01/29 03:45:01;;;;;;;2.88;0.80;;;16.20;99.90;;;;;;5071839;28;20495;-64
2021/01/29 03:47:50;;;;;;;4.45;0.90;;;16.20;99.90;;;;;;5071599;28;20123;-64
2021/01/29 03:50:41;;;;;;;3.47;0.77;;;16.10;99.90;;;;;;5071866;28;20027;-65
2021/01/29 03:53:28;;;;;;;4.10;0.88;;;16.10;99.90;;;;;;5071660;28;20016;-65
2021/01/29 03:56:14;;;;;;;4.10;1.00;;;16.00;99.90;;;;;;5071234;28;20032;-64
2021/01/29 03:58:46;;;;;;;3.33;0.95;;;16.00;99.90;;;;;;5064226;28;20029;-64
2021/01/29 04:01:36;;;;;;;3.83;0.88;;;16.00;99.90;;;;;;5071652;28;20473;-64
2021/01/29 04:04:18;;;;;;;2.13;0.80;;;16.00;99.90;;;;;;5071745;28;20090;-65
2021/01/29 04:07:04;;;;;;;5.28;0.88;;;16.00;99.90;;;;;;5071395;28;20099;-64
2021/01/29 04:09:54;;;;;;;5.40;0.90;;;16.00;99.90;;;;;;5071855;28;20021;-64
2021/01/29 04:12:30;;;;;;;4.70;1.00;;;16.00;99.90;;;;;;5070894;28;20032;-64
2021/01/29 04:15:12;;;;;;;3.75;1.10;;;16.00;99.90;;;;;;5070838;28;20030;-64
2021/01/29 04:18:05;;;;;;;5.13;1.05;;;16.00;99.90;;;;;;5071193;28;20565;-64
2021/01/29 04:20:36;;;;;;;3.55;1.20;;;15.90;99.90;;;;;;5040476;28;20489;-64
2021/01/29 04:23:06;;;;;;;4.32;1.10;;;15.90;99.90;;;;;;5071327;28;20032;-64
2021/01/29 04:25:36;;;;;;;5.35;0.90;;;15.90;99.90;;;;;;5071271;28;20016;-64
2021/01/29 04:28:06;;;;;;;7.88;1.35;;;15.90;99.90;;;;;;5071400;28;20060;-64
2021/01/29 04:30:33;;;;;;;6.43;1.40;;;15.90;99.90;;;;;;5071093;28;20082;-64
2021/01/29 04:33:07;;;;;;;5.63;1.08;;;15.90;99.90;;;;;;5071586;28;20107;-63
2021/01/29 04:35:36;;;;;;;6.72;1.60;;;15.90;99.90;;;;;;5071018;28;20025;-63
2021/01/29 04:38:08;;;;;;;9.73;2.13;;;15.90;99.90;;;;;;5071269;28;20020;-63
2021/01/29 04:40:38;;;;;;;6.25;1.48;;;15.90;99.90;;;;;;5071026;28;20078;-64
2021/01/29 04:43:17;;;;;;;7.57;1.50;;;15.90;99.90;;;;;;5070895;28;20029;-64
2021/01/29 04:46:08;;;;;;;10.25;1.65;;;15.90;99.90;;;;;;5071668;28;20032;-64
2021/01/29 04:48:58;;;;;;;6.28;1.35;;;15.80;99.90;;;;;;5075221;28;20485;-64
2021/01/29 04:51:24;;;;;;;8.45;1.67;;;15.90;99.90;;;;;;5075178;28;20111;-64
2021/01/29 04:54:05;;;;;;;10.30;2.25;;;15.80;99.90;;;;;;5074997;28;20044;-65
2021/01/29 04:57:12;;;;;;;8.85;1.80;;;15.80;99.90;;;;;;5075270;28;20029;-64
2021/01/29 05:00:11;;;;;;;8.75;1.83;;;15.80;99.90;;;;;;5071697;28;20047;-64
2021/01/29 05:03:07;;;;;;;9.25;1.70;;;15.70;99.90;;;;;;5074729;28;20388;-64
2021/01/29 05:05:44;;;;;;;8.15;1.75;;;15.70;99.90;;;;;;5074807;28;20099;-65
2021/01/29 05:08:48;;;;;;;9.02;2.28;;;15.80;99.90;;;;;;5073387;28;20358;-66
2021/01/29 05:11:32;;;;;;;10.95;2.70;;;15.80;99.90;;;;;;5074656;28;20025;-64
2021/01/29 05:14:16;;;;;;;8.95;1.90;;;15.70;99.90;;;;;;5074751;28;20029;-64
2021/01/29 05:17:12;;;;;;;11.07;2.53;;;15.70;99.90;;;;;;5074534;28;20098;-64
2021/01/29 05:20:15;;;;;;;11.35;2.03;;;15.70;99.90;;;;;;5074751;28;20024;-63
2021/01/29 05:22:59;;;;;;;12.50;2.33;;;15.70;99.90;;;;;;5074325;28;20028;-64
2021/01/29 05:25:46;;;;;;;8.40;2.45;;;15.70;99.90;;;;;;5074525;28;20032;-64
2021/01/29 05:28:42;;;;;;;13.32;3.08;;;15.70;99.90;;;;;;5074578;28;20028;-63
2021/01/29 05:31:08;;;;;;;10.38;2.25;;;15.70;99.90;;;;;;5074389;28;20064;-63
2021/01/29 05:33:47;;;;;;;13.63;2.80;;;15.70;99.90;;;;;;5074226;28;20056;-64
2021/01/29 05:36:35;;;;;;;13.88;2.58;;;15.70;99.90;;;;;;5074466;28;20078;-64
2021/01/29 05:39:06;;;;;;;14.77;3.13;;;15.70;99.90;;;;;;5074682;28;20047;-64
2021/01/29 05:41:47;;;;;;;12.80;3.17;;;15.70;99.90;;;;;;5073534;28;20036;-65
2021/01/29 05:44:40;;;;;;;13.38;3.00;;;15.60;99.90;;;;;;5074274;28;20020;-65
2021/01/29 05:47:30;;;;;;;15.45;3.13;;;15.60;99.90;;;;;;5074171;28;20025;-65
2021/01/29 05:49:58;;;;;;;10.27;2.20;;;15.60;99.90;;;;;;5073871;28;20063;-65
2021/01/29 05:52:47;;;;;;;14.43;2.67;;;15.60;99.90;;;;;;5074079;28;20104;-65
2021/01/29 05:55:39;;;;;;;14.77;3.10;;;15.60;99.90;;;;;;5052637;28;20032;-65
2021/01/29 05:58:10;;;;;;;12.68;2.63;;;15.60;99.90;;;;;;5057184;28;20045;-64
2021/01/29 06:00:45;;;;;;;15.95;2.95;;;15.60;99.90;;;;;;5073085;28;20166;-64
2021/01/29 06:03:33;;;;;;;14.88;3.30;;;15.60;99.90;;;;;;5074073;28;20028;-64
2021/01/29 06:06:07;;;;;;;13.35;3.50;;;15.60;99.90;;;;;;5074302;28;20384;-64
2021/01/29 06:08:40;;;;;;;15.45;3.00;;;15.60;99.90;;;;;;5073591;28;20463;-64
2021/01/29 06:11:27;;;;;;;12.27;3.20;;;15.60;99.90;;;;;;5073631;28;20028;-63
2021/01/29 06:14:02;;;;;;;13.60;3.42;;;15.60;99.90;;;;;;5073612;28;20029;-65
2021/01/29 06:16:52;;;;;;;13.85;3.58;;;15.50;99.90;;;;;;5074066;28;20020;-65
2021/01/29 06:19:30;;;;;;;13.52;3.20;;;15.50;99.90;;;;;;5073772;28;20353;-64
2021/01/29 06:22:18;;;;;;;14.38;3.05;;;15.50;99.90;;;;;;5072109;28;20435;-64
2021/01/29 06:25:20;;;;;;;16.55;2.72;;;15.50;99.90;;;;;;5073469;28;20075;-64
2021/01/29 06:27:48;;;;;;;13.27;3.20;;;15.50;99.90;;;;;;5073409;28;20388;-64
2021/01/29 06:30:39;;;;;;;18.25;3.75;;;15.50;99.90;;;;;;5072838;28;20503;-64
2021/01/29 06:33:35;;;;;;;12.75;3.00;;;15.50;99.90;;;;;;5073247;28;20047;-65
2021/01/29 06:36:00;;;;;;;16.77;3.83;;;15.50;99.90;;;;;;5072576;28;20029;-64
2021/01/29 06:38:38;;;;;;;20.00;3.72;;;15.50;99.90;;;;;;5073303;28;20078;-64
2021/01/29 06:41:23;;;;;;;15.32;3.70;;;15.50;99.90;;;;;;5073293;28;20459;-65
2021/01/29 06:44:12;;;;;;;13.90;3.30;;;15.50;99.90;;;;;;5073015;28;20024;-65
2021/01/29 06:46:43;;;;;;;16.25;2.85;;;15.50;99.90;;;;;;5072984;28;20365;-64
2021/01/29 06:49:24;;;;;;;13.80;3.22;;;15.50;99.90;;;;;;5072414;28;20464;-62
2021/01/29 06:52:17;;;;;;;15.20;3.63;;;15.60;99.90;;;;;;5072513;28;20058;-63
2021/01/29 06:55:02;;;;;;;8.80;2.73;;;15.80;99.90;;;;;;5072941;28;20380;-62
2021/01/29 06:58:04;;;;;;;17.58;3.72;;;16.10;99.90;;;;;;5073317;28;20021;-62
2021/01/29 07:00:39;;;;;;;11.82;3.03;;;16.00;99.90;;;;;;5073056;28;20123;-62
2021/01/29 07:03:28;;;;;;;14.18;2.70;;;16.30;99.90;;;;;;5073010;28;20024;-64
2021/01/29 07:06:35;;;;;;;13.57;3.05;;;16.50;99.90;;;;;;5072672;28;20507;-60
2021/01/29 07:09:23;;;;;;;12.20;3.13;;;16.70;99.90;;;;;;5062038;28;20041;-59
2021/01/29 07:12:36;;;;;;;12.48;2.80;;;16.80;99.90;;;;;;5072562;28;20380;-59
2021/01/29 07:15:01;;;;;;;10.85;2.67;;;16.90;99.90;;;;;;5061139;28;20040;-64
2021/01/29 07:17:40;;;;;;;11.07;2.83;;;17.00;99.90;;;;;;5072893;28;20131;-66
2021/01/29 07:20:17;;;;;;;12.35;2.58;;;17.10;99.90;;;;;;5072087;28;20384;-66
2021/01/29 07:23:30;;;;;;;16.90;3.58;;;17.10;99.90;;;;;;5072306;28;20542;-62
2021/01/29 07:26:09;;;;;;;15.73;3.40;;;17.10;99.90;;;;;;5068392;28;20386;-64
2021/01/29 07:28:47;;;;;;;14.52;3.17;;;17.00;99.90;;;;;;5071791;28;20171;-64
2021/01/29 07:31:18;;;;;;;15.30;3.50;;;17.00;99.90;;;;;;5071985;28;20381;-63
2021/01/29 07:33:57;;;;;;;11.43;3.38;;;16.90;99.90;;;;;;5071966;28;20063;-64
2021/01/29 07:37:00;;;;;;;11.77;3.20;;;16.90;99.90;;;;;;5072334;28;20537;-63
2021/01/29 07:39:37;;;;;;;16.48;3.28;;;16.90;99.90;;;;;;5071831;28;20020;-63
2021/01/29 07:42:37;;;;;;;15.73;3.78;;;16.80;99.90;;;;;;5072171;28;20055;-63
2021/01/29 07:45:24;;;;;;;13.27;3.45;;;16.80;99.90;;;;;;5048565;28;20028;-63
2021/01/29 07:48:24;;;;;;;14.20;3.22;;;16.80;99.90;;;;;;5071841;28;20066;-63
2021/01/29 07:50:56;;;;;;;15.57;3.63;;;16.80;99.90;;;;;;5071121;28;20032;-60
2021/01/29 07:53:48;;;;;;;15.02;3.17;;;16.80;99.90;;;;;;5072010;28;20024;-63
2021/01/29 07:56:29;;;;;;;15.65;3.88;;;16.80;99.90;;;;;;5071505;28;20078;-64
2021/01/29 07:59:19;;;;;;;20.75;4.53;;;16.80;99.90;;;;;;5070969;28;20067;-60
2021/01/29 08:02:11;;;;;;;27.20;5.78;;;16.70;99.90;;;;;;5068199;28;20064;-60
2021/01/29 08:04:50;;;;;;;36.15;6.90;;;16.20;99.90;;;;;;5070163;28;20025;-61
2021/01/29 08:07:47;;;;;;;35.15;7.78;;;15.90;99.90;;;;;;5071634;28;20024;-60
2021/01/29 08:10:30;;;;;;;33.33;6.95;;;15.60;99.90;;;;;;5071018;28;20119;-60
2021/01/29 08:13:03;;;;;;;35.28;6.70;;;15.50;99.90;;;;;;5071442;28;20147;-61
2021/01/29 08:15:49;;;;;;;34.88;7.15;;;15.30;99.90;;;;;;5070262;28;20021;-63
2021/01/29 08:18:31;;;;;;;35.58;6.82;;;15.30;99.90;;;;;;5070922;28;20036;-68
2021/01/29 08:21:07;;;;;;;23.73;4.97;;;15.60;99.90;;;;;;5070786;28;20043;-67
2021/01/29 08:23:48;;;;;;;24.85;5.10;;;15.90;99.90;;;;;;5051272;28;20385;-69
2021/01/29 08:26:34;;;;;;;25.42;5.28;;;16.10;99.90;;;;;;5067909;28;20032;-67
2021/01/29 08:29:14;;;;;;;20.27;4.78;;;16.30;99.90;;;;;;5071729;28;20063;-68
2021/01/29 08:31:49;;;;;;;14.10;3.20;;;17.20;99.90;;;;;;5071262;28;20056;-67
2021/01/29 08:34:21;;;;;;;13.68;3.63;;;18.50;99.90;;;;;;5071400;28;20435;-68
2021/01/29 08:37:14;;;;;;;10.90;3.00;;;19.30;99.90;;;;;;5071181;28;20029;-69
2021/01/29 08:39:57;;;;;;;9.27;2.80;;;20.20;99.90;;;;;;5071053;28;20028;-66
2021/01/29 08:42:41;;;;;;;12.52;3.05;;;20.50;99.90;;;;;;5071308;28;20028;-65
2021/01/29 08:45:21;;;;;;;11.38;2.63;;;21.00;99.90;;;;;;5071369;28;20020;-67
2021/01/29 08:48:17;;;;;;;13.55;2.90;;;21.50;99.90;;;;;;5071066;28;20027;-67
2021/01/29 08:51:18;;;;;;;9.73;2.42;;;22.00;99.90;;;;;;5070812;28;20050;-68
2021/01/29 08:53:55;;;;;;;8.50;2.30;;;21.90;99.90;;;;;;5070750;28;20025;-66
2021/01/29 08:57:08;;;;;;;9.48;2.13;;;20.90;99.90;;;;;;5051098;28;20044;-67
2021/01/29 08:59:38;;;;;;;10.93;2.63;;;20.10;99.90;;;;;;5028803;28;20029;-67
2021/01/29 09:02:07;;;;;;;9.98;2.33;;;19.50;99.90;;;;;;5046966;28;20037;-67
2021/01/29 09:04:52;;;;;;;7.32;1.75;;;19.20;99.90;;;;;;5051027;28;20021;-66
2021/01/29 09:07:27;;;;;;;8.25;1.70;;;18.90;99.90;;;;;;5051156;28;20033;-66
2021/01/29 09:10:04;;;;;;;7.93;1.52;;;18.70;99.90;;;;;;5058410;28;20020;-68
2021/01/29 09:12:32;;;;;;;8.63;2.17;;;18.60;99.90;;;;;;5075412;28;20020;-67
2021/01/29 09:15:22;;;;;;;8.65;1.80;;;18.50;99.90;;;;;;5071072;28;20115;-68
2021/01/29 09:17:58;;;;;;;9.23;2.17;;;18.40;99.90;;;;;;5070750;28;20024;-68
2021/01/29 09:20:29;;;;;;;6.55;1.80;;;18.30;99.90;;;;;;5070743;28;20036;-67
2021/01/29 09:23:04;;;;;;;8.65;1.70;;;18.20;99.90;;;;;;5070836;28;20369;-67
2021/01/29 09:25:35;;;;;;;8.02;2.08;;;18.20;99.90;;;;;;5067176;28;20021;-67
2021/01/29 09:28:16;;;;;;;7.00;1.70;;;18.10;99.90;;;;;;5071038;28;20033;-65
2021/01/29 09:30:45;;;;;;;10.70;2.63;;;18.10;99.90;;;;;;5070265;28;20028;-65
2021/01/29 09:33:31;;;;;;;7.35;2.03;;;18.00;99.90;;;;;;5071708;28;20424;-65
2021/01/29 09:36:25;;;;;;;7.70;1.80;;;18.00;99.90;;;;;;5074865;28;20477;-67
2021/01/29 09:39:01;;;;;;;10.07;2.08;;;18.00;99.90;;;;;;5068297;28;20054;-66
2021/01/29 09:41:36;;;;;;;6.70;1.52;;;18.00;99.90;;;;;;5054808;28;20052;-64
2021/01/29 09:44:22;;;;;;;8.23;1.98;;;17.90;99.90;;;;;;5054616;28;20029;-66
2021/01/29 09:46:54;;;;;;;8.23;1.55;;;17.90;99.90;;;;;;5054317;28;20025;-65
2021/01/29 09:49:29;;;;;;;10.07;1.90;;;17.90;99.90;;;;;;5054296;28;20025;-66
2021/01/29 09:52:10;;;;;;;9.73;2.00;;;17.80;99.90;;;;;;5054035;28;20057;-66
2021/01/29 09:54:50;;;;;;;7.20;1.75;;;17.80;99.90;;;;;;5053591;28;20496;-64
2021/01/29 09:57:23;;;;;;;8.98;2.13;;;17.70;99.90;;;;;;5054092;28;20496;-66
2021/01/29 10:00:02;;;;;;;7.95;2.20;;;17.70;99.90;;;;;;5053807;28;20370;-67
2021/01/29 10:02:40;;;;;;;9.60;2.25;;;17.70;99.90;;;;;;5054489;28;20033;-68
2021/01/29 10:05:25;;;;;;;8.38;2.00;;;17.60;99.90;;;;;;5054163;28;20024;-67
2021/01/29 10:08:15;;;;;;;9.20;2.03;;;17.60;99.90;;;;;;5071096;28;20086;-70
2021/01/29 10:10:48;;;;;;;7.65;1.85;;;17.60;99.90;;;;;;5073812;28;20413;-68
2021/01/29 10:13:21;;;;;;;7.30;1.52;;;17.60;99.90;;;;;;5071606;28;20021;-66
2021/01/29 10:15:55;;;;;;;6.82;1.73;;;17.60;99.90;;;;;;5073603;28;20025;-65
2021/01/29 10:18:23;;;;;;;8.95;1.90;;;17.50;99.90;;;;;;5072482;28;20442;-66
2021/01/29 10:20:52;;;;;;;7.93;1.65;;;17.50;99.90;;;;;;5071539;28;20123;-67
2021/01/29 10:23:35;;;;;;;8.15;1.63;;;17.50;99.90;;;;;;5073228;28;20025;-68
2021/01/29 10:26:16;;;;;;;7.40;1.60;;;17.50;99.90;;;;;;5073887;28;20033;-65
2021/01/29 10:29:21;;;;;;;7.88;1.80;;;17.50;99.90;;;;;;5072985;28;20028;-68
2021/01/29 10:32:17;;;;;;;8.07;1.98;;;17.50;99.90;;;;;;5071940;28;20047;-67
2021/01/29 10:34:49;;;;;;;9.57;2.03;;;17.40;99.90;;;;;;5072906;28;20507;-67
2021/01/29 10:37:23;;;;;;;7.47;1.83;;;17.40;99.90;;;;;;5073472;28;20060;-65
2021/01/29 10:40:21;;;;;;;4.93;1.42;;;17.40;99.90;;;;;;5071935;28;20067;-66
2021/01/29 10:42:53;;;;;;;7.28;1.63;;;17.50;99.90;;;;;;5069891;28;20050;-66
2021/01/29 10:45:47;;;;;;;8.52;1.67;;;17.50;99.90;;;;;;5071691;28;20025;-64
2021/01/29 10:48:27;;;;;;;3.63;1.08;;;17.90;99.90;;;;;;5072977;28;20059;-66
2021/01/29 10:51:06;;;;;;;4.90;1.20;;;19.30;99.90;;;;;;5072638;28;20024;-67
2021/01/29 10:53:32;;;;;;;7.55;1.20;;;20.30;99.90;;;;;;5072765;28;20021;-68
2021/01/29 10:56:11;;;;;;;5.88;1.58;;;20.90;99.90;;;;;;5072985;28;20039;-66
2021/01/29 10:59:20;;;;;;;3.05;1.00;;;21.70;99.90;;;;;;5072835;28;20020;-67
2021/01/29 11:01:54;;;;;;;4.63;1.27;;;22.00;99.90;;;;;;5072466;28;20034;-67
2021/01/29 11:04:32;;;;;;;3.97;1.02;;;22.60;99.90;;;;;;5072807;28;20016;-67
2021/01/29 11:07:06;;;;;;;3.78;1.10;;;23.20;99.90;;;;;;5073024;28;20039;-66
2021/01/29 11:09:36;;;;;;;2.70;1.02;;;23.30;99.90;;;;;;5072697;28;20031;-67
2021/01/29 11:12:18;;;;;;;4.20;0.90;;;22.50;99.90;;;;;;5072549;28;20546;-69
2021/01/29 11:14:52;;;;;;;4.68;1.10;;;21.70;99.90;;;;;;5072389;28;20420;-68
2021/01/29 11:17:44;;;;;;;5.22;1.33;;;21.00;99.90;;;;;;5072017;28;20020;-66
2021/01/29 11:20:23;;;;;;;4.22;1.10;;;20.60;99.90;;;;;;5071552;28;20041;-68
2021/01/29 11:23:11;;;;;;;5.90;1.00;;;20.30;99.90;;;;;;5071987;28;20040;-69
2021/01/29 11:26:08;;;;;;;5.30;1.23;;;20.10;99.90;;;;;;5072178;28;20032;-69
2021/01/29 11:28:52;;;;;;;4.93;1.40;;;19.90;99.90;;;;;;5071544;28;20020;-68
2021/01/29 11:31:33;;;;;;;6.22;1.40;;;19.80;99.90;;;;;;5060521;28;20032;-69
2021/01/29 11:34:00;;;;;;;7.32;1.90;;;19.70;99.90;;;;;;5072714;28;20032;-68
2021/01/29 11:36:33;;;;;;;8.90;2.30;;;19.70;99.90;;;;;;5061282;28;20376;-69
2021/01/29 11:39:01;;;;;;;7.28;2.22;;;19.80;99.90;;;;;;5067839;28;20028;-69
2021/01/29 11:41:37;;;;;;;7.25;2.10;;;19.80;99.90;;;;;;5072195;28;20029;-68
2021/01/29 11:44:11;;;;;;;6.80;2.35;;;19.90;99.90;;;;;;5070947;28;20048;-68
2021/01/29 11:46:47;;;;;;;7.53;2.22;;;19.90;99.90;;;;;;5069833;28;20109;-68
2021/01/29 11:49:22;;;;;;;6.65;2.47;;;19.80;99.90;;;;;;5068510;28;20024;-69
2021/01/29 11:52:26;;;;;;;7.63;1.92;;;19.90;99.90;;;;;;5071682;28;20388;-68
2021/01/29 11:55:15;;;;;;;8.23;2.45;;;19.80;99.90;;;;;;5051433;28;20090;-69
2021/01/29 11:58:06;;;;;;;6.18;2.10;;;19.70;99.90;;;;;;5031552;28;20036;-69
2021/01/29 12:00:41;;;;;;;8.00;2.10;;;19.70;99.90;;;;;;5058593;28;20120;-69
2021/01/29 12:03:30;;;;;;;6.82;2.13;;;19.60;99.90;;;;;;5071577;28;20039;-69
2021/01/29 12:06:10;;;;;;;7.07;2.40;;;19.60;99.90;;;;;;5071540;28;20469;-68
2021/01/29 12:08:39;;;;;;;9.15;2.15;;;19.60;99.90;;;;;;5071488;28;20090;-69
2021/01/29 12:11:19;;;;;;;6.07;2.03;;;19.50;99.90;;;;;;5071638;28;20524;-69
2021/01/29 12:14:24;;;;;;;8.48;2.05;;;19.50;99.90;;;;;;5071625;28;20035;-69
2021/01/29 12:17:08;;;;;;;;;;;19.40;99.90;;;;;;5028838;28;20121;-69
2021/01/29 12:19:41;;;;;;;5.45;1.95;;;19.30;99.90;;;;;;5049707;28;19951;-68
2021/01/29 12:22:28;;;;;;;7.60;2.10;;;19.30;99.90;;;;;;5069187;28;20037;-69
2021/01/29 12:25:15;;;;;;;6.88;2.00;;;19.20;99.90;;;;;;5070711;28;20366;-69
2021/01/29 12:27:51;;;;;;;8.05;2.00;;;19.20;99.90;;;;;;5071210;28;20039;-69
2021/01/29 12:30:32;;;;;;;9.77;2.40;;;19.20;99.90;;;;;;5069971;28;20404;-68
2021/01/29 12:33:12;;;;;;;7.35;2.40;;;19.10;99.90;;;;;;5071588;28;20469;-69
2021/01/29 12:35:50;;;;;;;9.73;2.58;;;19.00;99.90;;;;;;5071225;28;20035;-66
2021/01/29 12:38:19;;;;;;;8.70;2.70;;;19.00;99.90;;;;;;5071445;28;20031;-68
2021/01/29 12:41:05;;;;;;;7.95;2.17;;;18.90;99.90;;;;;;5071193;28;20036;-68
2021/01/29 12:43:48;;;;;;;9.95;2.88;;;18.90;99.90;;;;;;5071310;28;20032;-68
2021/01/29 12:46:28;;;;;;;9.05;2.63;;;18.90;99.90;;;;;;5070422;28;20033;-68
2021/01/29 12:49:05;;;;;;;7.68;2.30;;;18.80;99.90;;;;;;5071029;28;20077;-68
2021/01/29 12:51:58;;;;;;;7.47;2.40;;;18.80;99.90;;;;;;5071748;28;20025;-68
2021/01/29 12:54:43;;;;;;;6.80;2.22;;;18.70;99.90;;;;;;5071318;28;20021;-68
2021/01/29 12:57:19;;;;;;;5.43;2.15;;;18.70;99.90;;;;;;5070731;28;20039;-68
2021/01/29 12:59:54;;;;;;;7.85;2.17;;;18.70;99.90;;;;;;5070036;28;20438;-68
2021/01/29 13:03:01;;;;;;;5.65;1.90;;;18.60;99.90;;;;;;5070741;28;20033;-68
2021/01/29 13:05:50;;;;;;;5.47;1.75;;;18.50;99.90;;;;;;5062931;28;20112;-68
2021/01/29 13:08:52;;;;;;;6.03;2.10;;;18.40;99.90;;;;;;5074119;28;20021;-69
2021/01/29 13:11:57;;;;;;;5.95;2.05;;;18.30;99.90;;;;;;5074229;28;20046;-67
2021/01/29 13:14:41;;;;;;;5.88;1.88;;;18.20;99.90;;;;;;5073744;28;20366;-68
2021/01/29 13:17:29;;;;;;;5.43;1.92;;;18.10;99.90;;;;;;5073818;28;20025;-70
2021/01/29 13:20:04;;;;;;;5.88;1.45;;;18.10;99.90;;;;;;5074413;28;20037;-67
2021/01/29 13:22:35;;;;;;;4.85;1.48;;;18.10;99.90;;;;;;5075188;28;20029;-68
2021/01/29 13:25:10;;;;;;;4.25;1.50;;;18.10;99.90;;;;;;5075056;28;20040;-68
2021/01/29 13:27:41;;;;;;;5.53;1.67;;;18.10;99.90;;;;;;5073849;28;20503;-67
2021/01/29 13:30:17;;;;;;;4.25;1.50;;;18.10;99.90;;;;;;5074544;28;20035;-67
2021/01/29 13:32:45;;;;;;;4.25;1.30;;;18.00;99.90;;;;;;5074241;28;20064;-70
2021/01/29 13:35:12;;;;;;;5.00;1.52;;;18.00;99.90;;;;;;5073337;28;20461;-69
2021/01/29 13:37:39;;;;;;;4.38;1.25;;;18.00;99.90;;;;;;5073817;28;20024;-67
2021/01/29 13:40:36;;;;;;;4.13;1.30;;;17.90;99.90;;;;;;5074418;28;20032;-68
2021/01/29 13:43:12;;;;;;;3.35;1.08;;;17.80;99.90;;;;;;5069957;28;20041;-68
2021/01/29 13:45:38;;;;;;;4.53;1.25;;;17.80;99.90;;;;;;5072652;28;20028;-69
2021/01/29 13:48:09;;;;;;;3.10;1.17;;;17.80;99.90;;;;;;5074440;28;20127;-69